< < Back
Terminal Aerodrome Forecast


Current Version              Previous Versions:   1  2  3  4  5  6  7  8  9  

Terminal Aerodrome Forecast

328
FTUS42 KGSP 281120
TAFHKY
TAF
KHKY 281120Z 2812/2912 32003KT P6SM FEW200
     FM281900 22003KT P6SM FEW200
     FM290700 00000KT P6SM FEW200=



Latest METAR

842
SAUS70 KWBC 281500 RRF
MTRHKY
METAR KHKY 281453Z 35008KT 10SM CLR 01/M08 A3035 RMK AO2 SLP275
T00111083 50006


USA.gov is the U.S. government's official web portal to all federal, state and local government web resources and services.